sensor_id;sensor_type;location;lat;lon;timestamp;P1;durP1;ratioP1;P2;durP2;ratioP2
13897;SDS011;7019;50.766;4.474;2022-07-05T00:01:43;2.13;;;1.93;;
13897;SDS011;7019;50.766;4.474;2022-07-05T00:04:10;4.07;;;2.30;;
13897;SDS011;7019;50.766;4.474;2022-07-05T00:06:37;2.40;;;2.20;;
13897;SDS011;7019;50.766;4.474;2022-07-05T00:09:26;4.43;;;2.70;;
13897;SDS011;7019;50.766;4.474;2022-07-05T00:11:53;3.00;;;2.50;;
13897;SDS011;7019;50.766;4.474;2022-07-05T00:14:20;3.43;;;2.10;;
13897;SDS011;7019;50.766;4.474;2022-07-05T00:16:48;2.93;;;2.20;;
13897;SDS011;7019;50.766;4.474;2022-07-05T00:19:15;2.53;;;2.10;;
13897;SDS011;7019;50.766;4.474;2022-07-05T00:21:43;3.73;;;2.10;;
13897;SDS011;7019;50.766;4.474;2022-07-05T00:24:10;3.23;;;2.03;;
13897;SDS011;7019;50.766;4.474;2022-07-05T00:26:38;2.30;;;2.10;;
13897;SDS011;7019;50.766;4.474;2022-07-05T00:29:05;2.70;;;2.00;;
13897;SDS011;7019;50.766;4.474;2022-07-05T00:31:33;3.00;;;2.70;;
13897;SDS011;7019;50.766;4.474;2022-07-05T00:34:00;2.33;;;2.13;;
13897;SDS011;7019;50.766;4.474;2022-07-05T00:36:27;2.10;;;1.90;;
13897;SDS011;7019;50.766;4.474;2022-07-05T00:38:54;3.20;;;2.17;;
13897;SDS011;7019;50.766;4.474;2022-07-05T00:41:21;3.23;;;1.73;;
13897;SDS011;7019;50.766;4.474;2022-07-05T00:43:53;4.10;;;2.10;;
13897;SDS011;7019;50.766;4.474;2022-07-05T00:46:21;3.00;;;2.17;;
13897;SDS011;7019;50.766;4.474;2022-07-05T00:48:49;4.60;;;2.10;;
13897;SDS011;7019;50.766;4.474;2022-07-05T00:51:16;2.17;;;1.97;;
13897;SDS011;7019;50.766;4.474;2022-07-05T00:53:44;4.13;;;2.37;;
13897;SDS011;7019;50.766;4.474;2022-07-05T00:56:11;4.00;;;2.60;;
13897;SDS011;7019;50.766;4.474;2022-07-05T00:58:39;3.27;;;2.20;;
13897;SDS011;7019;50.766;4.474;2022-07-05T01:01:08;5.23;;;2.17;;
13897;SDS011;7019;50.766;4.474;2022-07-05T01:03:35;4.17;;;2.20;;
13897;SDS011;7019;50.766;4.474;2022-07-05T01:06:04;3.10;;;2.20;;
13897;SDS011;7019;50.766;4.474;2022-07-05T01:08:33;3.17;;;2.27;;
13897;SDS011;7019;50.766;4.474;2022-07-05T01:11:04;4.33;;;2.13;;
13897;SDS011;7019;50.766;4.474;2022-07-05T01:13:31;2.63;;;2.10;;
13897;SDS011;7019;50.766;4.474;2022-07-05T01:15:59;2.60;;;1.93;;
13897;SDS011;7019;50.766;4.474;2022-07-05T01:18:28;3.40;;;2.33;;
13897;SDS011;7019;50.766;4.474;2022-07-05T01:20:57;6.13;;;2.40;;
13897;SDS011;7019;50.766;4.474;2022-07-05T01:23:27;2.40;;;1.80;;
13897;SDS011;7019;50.766;4.474;2022-07-05T01:25:56;3.33;;;1.80;;
13897;SDS011;7019;50.766;4.474;2022-07-05T01:28:25;2.27;;;1.90;;
13897;SDS011;7019;50.766;4.474;2022-07-05T01:30:52;2.80;;;2.23;;
13897;SDS011;7019;50.766;4.474;2022-07-05T01:33:19;2.57;;;1.90;;
13897;SDS011;7019;50.766;4.474;2022-07-05T01:35:53;2.37;;;1.87;;
13897;SDS011;7019;50.766;4.474;2022-07-05T01:38:21;6.13;;;2.20;;
13897;SDS011;7019;50.766;4.474;2022-07-05T01:40:49;2.20;;;1.90;;
13897;SDS011;7019;50.766;4.474;2022-07-05T01:43:17;2.30;;;2.10;;
13897;SDS011;7019;50.766;4.474;2022-07-05T01:45:45;2.20;;;2.00;;
13897;SDS011;7019;50.766;4.474;2022-07-05T01:48:14;3.43;;;2.47;;
13897;SDS011;7019;50.766;4.474;2022-07-05T01:50:44;3.83;;;2.23;;
13897;SDS011;7019;50.766;4.474;2022-07-05T01:53:14;3.03;;;2.30;;
13897;SDS011;7019;50.766;4.474;2022-07-05T01:55:44;2.23;;;2.03;;
13897;SDS011;7019;50.766;4.474;2022-07-05T01:58:12;2.20;;;2.07;;
13897;SDS011;7019;50.766;4.474;2022-07-05T02:00:44;3.67;;;2.20;;
13897;SDS011;7019;50.766;4.474;2022-07-05T02:03:12;3.57;;;2.30;;
13897;SDS011;7019;50.766;4.474;2022-07-05T02:05:39;3.47;;;2.73;;
13897;SDS011;7019;50.766;4.474;2022-07-05T02:08:06;5.30;;;2.20;;
13897;SDS011;7019;50.766;4.474;2022-07-05T02:10:34;2.90;;;1.90;;
13897;SDS011;7019;50.766;4.474;2022-07-05T02:13:01;2.53;;;2.17;;
13897;SDS011;7019;50.766;4.474;2022-07-05T02:15:30;2.87;;;2.40;;
13897;SDS011;7019;50.766;4.474;2022-07-05T02:17:58;2.30;;;2.07;;
13897;SDS011;7019;50.766;4.474;2022-07-05T02:20:25;3.97;;;2.43;;
13897;SDS011;7019;50.766;4.474;2022-07-05T02:22:53;3.20;;;2.37;;
13897;SDS011;7019;50.766;4.474;2022-07-05T02:25:20;2.80;;;2.33;;
13897;SDS011;7019;50.766;4.474;2022-07-05T02:27:47;4.93;;;2.73;;
13897;SDS011;7019;50.766;4.474;2022-07-05T02:30:14;4.37;;;2.20;;
13897;SDS011;7019;50.766;4.474;2022-07-05T02:32:43;3.57;;;2.27;;
13897;SDS011;7019;50.766;4.474;2022-07-05T02:35:10;3.77;;;2.37;;
13897;SDS011;7019;50.766;4.474;2022-07-05T02:37:38;4.13;;;2.10;;
13897;SDS011;7019;50.766;4.474;2022-07-05T02:40:06;3.70;;;2.10;;
13897;SDS011;7019;50.766;4.474;2022-07-05T02:42:35;3.03;;;2.27;;
13897;SDS011;7019;50.766;4.474;2022-07-05T02:45:03;2.80;;;2.40;;
13897;SDS011;7019;50.766;4.474;2022-07-05T02:47:30;4.50;;;2.40;;
13897;SDS011;7019;50.766;4.474;2022-07-05T02:50:02;2.33;;;2.13;;
13897;SDS011;7019;50.766;4.474;2022-07-05T02:52:29;4.47;;;2.67;;
13897;SDS011;7019;50.766;4.474;2022-07-05T02:54:56;2.97;;;2.67;;
13897;SDS011;7019;50.766;4.474;2022-07-05T02:57:23;3.93;;;2.70;;
13897;SDS011;7019;50.766;4.474;2022-07-05T02:59:52;3.13;;;2.50;;
13897;SDS011;7019;50.766;4.474;2022-07-05T03:02:19;3.67;;;2.97;;
13897;SDS011;7019;50.766;4.474;2022-07-05T03:04:46;5.17;;;2.63;;
13897;SDS011;7019;50.766;4.474;2022-07-05T03:07:15;3.33;;;2.27;;
13897;SDS011;7019;50.766;4.474;2022-07-05T03:09:42;2.60;;;2.40;;
13897;SDS011;7019;50.766;4.474;2022-07-05T03:12:09;2.57;;;2.30;;
13897;SDS011;7019;50.766;4.474;2022-07-05T03:14:36;2.60;;;1.90;;
13897;SDS011;7019;50.766;4.474;2022-07-05T03:17:03;3.10;;;2.17;;
13897;SDS011;7019;50.766;4.474;2022-07-05T03:19:30;3.17;;;2.30;;
13897;SDS011;7019;50.766;4.474;2022-07-05T03:21:57;4.60;;;2.33;;
13897;SDS011;7019;50.766;4.474;2022-07-05T03:24:26;3.23;;;1.77;;
13897;SDS011;7019;50.766;4.474;2022-07-05T03:26:53;2.33;;;1.90;;
13897;SDS011;7019;50.766;4.474;2022-07-05T03:29:20;3.70;;;2.30;;
13897;SDS011;7019;50.766;4.474;2022-07-05T03:31:47;5.23;;;2.30;;
13897;SDS011;7019;50.766;4.474;2022-07-05T03:34:14;4.13;;;2.37;;
13897;SDS011;7019;50.766;4.474;2022-07-05T03:36:41;4.50;;;2.00;;
13897;SDS011;7019;50.766;4.474;2022-07-05T03:39:08;3.30;;;2.20;;
13897;SDS011;7019;50.766;4.474;2022-07-05T03:41:37;3.73;;;2.20;;
13897;SDS011;7019;50.766;4.474;2022-07-05T03:44:04;2.50;;;2.30;;
13897;SDS011;7019;50.766;4.474;2022-07-05T03:46:31;2.57;;;2.30;;
13897;SDS011;7019;50.766;4.474;2022-07-05T03:48:58;2.97;;;2.30;;
13897;SDS011;7019;50.766;4.474;2022-07-05T03:51:26;4.20;;;2.20;;
13897;SDS011;7019;50.766;4.474;2022-07-05T03:53:53;4.40;;;2.10;;
13897;SDS011;7019;50.766;4.474;2022-07-05T03:56:20;2.53;;;2.23;;
13897;SDS011;7019;50.766;4.474;2022-07-05T03:58:49;2.43;;;2.10;;
13897;SDS011;7019;50.766;4.474;2022-07-05T04:01:17;4.63;;;2.23;;
13897;SDS011;7019;50.766;4.474;2022-07-05T04:03:44;4.30;;;2.20;;
13897;SDS011;7019;50.766;4.474;2022-07-05T04:06:11;2.10;;;1.90;;
13897;SDS011;7019;50.766;4.474;2022-07-05T04:08:39;2.37;;;2.17;;
13897;SDS011;7019;50.766;4.474;2022-07-05T04:11:06;2.40;;;2.00;;
13897;SDS011;7019;50.766;4.474;2022-07-05T04:13:34;2.47;;;1.87;;
13897;SDS011;7019;50.766;4.474;2022-07-05T04:16:03;3.03;;;2.20;;
13897;SDS011;7019;50.766;4.474;2022-07-05T04:18:30;2.17;;;1.97;;
13897;SDS011;7019;50.766;4.474;2022-07-05T04:20:57;3.13;;;2.07;;
13897;SDS011;7019;50.766;4.474;2022-07-05T04:23:24;3.30;;;2.00;;
13897;SDS011;7019;50.766;4.474;2022-07-05T04:25:51;2.50;;;2.20;;
13897;SDS011;7019;50.766;4.474;2022-07-05T04:28:18;2.53;;;2.00;;
13897;SDS011;7019;50.766;4.474;2022-07-05T04:30:46;2.73;;;2.17;;
13897;SDS011;7019;50.766;4.474;2022-07-05T04:33:14;3.13;;;2.00;;
13897;SDS011;7019;50.766;4.474;2022-07-05T04:35:41;2.53;;;2.00;;
13897;SDS011;7019;50.766;4.474;2022-07-05T04:38:08;3.43;;;2.07;;
13897;SDS011;7019;50.766;4.474;2022-07-05T04:40:35;4.33;;;1.90;;
13897;SDS011;7019;50.766;4.474;2022-07-05T04:43:02;2.60;;;2.07;;
13897;SDS011;7019;50.766;4.474;2022-07-05T04:45:29;3.00;;;2.03;;
13897;SDS011;7019;50.766;4.474;2022-07-05T04:47:56;3.00;;;2.10;;
13897;SDS011;7019;50.766;4.474;2022-07-05T04:50:25;3.83;;;2.10;;
13897;SDS011;7019;50.766;4.474;2022-07-05T04:52:52;3.07;;;2.30;;
13897;SDS011;7019;50.766;4.474;2022-07-05T04:55:20;3.23;;;1.90;;
13897;SDS011;7019;50.766;4.474;2022-07-05T04:57:47;2.77;;;1.97;;
13897;SDS011;7019;50.766;4.474;2022-07-05T05:00:14;2.43;;;1.97;;
13897;SDS011;7019;50.766;4.474;2022-07-05T05:02:41;4.37;;;2.17;;
13897;SDS011;7019;50.766;4.474;2022-07-05T05:05:08;3.33;;;2.33;;
13897;SDS011;7019;50.766;4.474;2022-07-05T05:07:39;2.97;;;2.07;;
13897;SDS011;7019;50.766;4.474;2022-07-05T05:10:08;4.60;;;2.33;;
13897;SDS011;7019;50.766;4.474;2022-07-05T05:12:35;4.80;;;2.53;;
13897;SDS011;7019;50.766;4.474;2022-07-05T05:15:03;4.30;;;2.40;;
13897;SDS011;7019;50.766;4.474;2022-07-05T05:17:36;2.67;;;2.20;;
13897;SDS011;7019;50.766;4.474;2022-07-05T05:20:05;3.13;;;2.40;;
13897;SDS011;7019;50.766;4.474;2022-07-05T05:22:37;3.13;;;2.20;;
13897;SDS011;7019;50.766;4.474;2022-07-05T05:25:04;3.80;;;2.20;;
13897;SDS011;7019;50.766;4.474;2022-07-05T05:27:32;3.20;;;2.20;;
13897;SDS011;7019;50.766;4.474;2022-07-05T05:29:59;2.77;;;2.40;;
13897;SDS011;7019;50.766;4.474;2022-07-05T05:32:26;3.33;;;2.87;;
13897;SDS011;7019;50.766;4.474;2022-07-05T05:34:53;4.30;;;3.03;;
13897;SDS011;7019;50.766;4.474;2022-07-05T05:37:20;6.13;;;2.50;;
13897;SDS011;7019;50.766;4.474;2022-07-05T05:39:48;5.67;;;2.47;;
13897;SDS011;7019;50.766;4.474;2022-07-05T05:42:15;4.30;;;2.50;;
13897;SDS011;7019;50.766;4.474;2022-07-05T05:44:42;4.20;;;2.37;;
13897;SDS011;7019;50.766;4.474;2022-07-05T05:47:09;3.53;;;2.90;;
13897;SDS011;7019;50.766;4.474;2022-07-05T05:49:36;6.07;;;3.23;;
13897;SDS011;7019;50.766;4.474;2022-07-05T05:52:04;4.87;;;2.33;;
13897;SDS011;7019;50.766;4.474;2022-07-05T05:54:31;6.50;;;3.83;;
13897;SDS011;7019;50.766;4.474;2022-07-05T05:56:59;4.77;;;2.63;;
13897;SDS011;7019;50.766;4.474;2022-07-05T05:59:26;4.10;;;3.17;;
13897;SDS011;7019;50.766;4.474;2022-07-05T06:01:53;4.03;;;2.97;;
13897;SDS011;7019;50.766;4.474;2022-07-05T06:04:20;5.87;;;3.20;;
13897;SDS011;7019;50.766;4.474;2022-07-05T06:06:47;5.57;;;3.10;;
13897;SDS011;7019;50.766;4.474;2022-07-05T06:09:14;2.87;;;2.57;;
13897;SDS011;7019;50.766;4.474;2022-07-05T06:11:41;5.77;;;2.90;;
13897;SDS011;7019;50.766;4.474;2022-07-05T06:14:09;9.90;;;3.87;;
13897;SDS011;7019;50.766;4.474;2022-07-05T06:16:37;8.13;;;4.10;;
13897;SDS011;7019;50.766;4.474;2022-07-05T06:19:04;8.87;;;3.87;;
13897;SDS011;7019;50.766;4.474;2022-07-05T06:21:31;7.67;;;3.50;;
13897;SDS011;7019;50.766;4.474;2022-07-05T06:23:58;8.70;;;3.37;;
13897;SDS011;7019;50.766;4.474;2022-07-05T06:26:25;6.83;;;2.80;;
13897;SDS011;7019;50.766;4.474;2022-07-05T06:28:53;6.77;;;2.83;;
13897;SDS011;7019;50.766;4.474;2022-07-05T06:31:21;5.60;;;1.87;;
13897;SDS011;7019;50.766;4.474;2022-07-05T06:33:48;2.67;;;2.03;;
13897;SDS011;7019;50.766;4.474;2022-07-05T06:36:15;6.57;;;2.53;;
13897;SDS011;7019;50.766;4.474;2022-07-05T06:38:42;4.65;;;2.03;;
13897;SDS011;7019;50.766;4.474;2022-07-05T06:41:09;7.50;;;2.67;;
13897;SDS011;7019;50.766;4.474;2022-07-05T06:43:36;6.15;;;2.53;;
13897;SDS011;7019;50.766;4.474;2022-07-05T06:46:03;4.07;;;1.90;;
13897;SDS011;7019;50.766;4.474;2022-07-05T06:48:32;3.40;;;1.92;;
13897;SDS011;7019;50.766;4.474;2022-07-05T06:50:59;3.00;;;1.98;;
13897;SDS011;7019;50.766;4.474;2022-07-05T06:53:26;5.88;;;2.20;;
13897;SDS011;7019;50.766;4.474;2022-07-05T06:55:53;7.07;;;2.70;;
13897;SDS011;7019;50.766;4.474;2022-07-05T06:58:20;4.32;;;2.05;;
13897;SDS011;7019;50.766;4.474;2022-07-05T07:00:47;5.35;;;2.10;;
13897;SDS011;7019;50.766;4.474;2022-07-05T07:03:14;5.45;;;2.40;;
13897;SDS011;7019;50.766;4.474;2022-07-05T07:05:42;3.65;;;1.80;;
13897;SDS011;7019;50.766;4.474;2022-07-05T07:08:09;5.80;;;1.92;;
13897;SDS011;7019;50.766;4.474;2022-07-05T07:10:54;6.82;;;2.00;;
13897;SDS011;7019;50.766;4.474;2022-07-05T07:13:21;4.88;;;2.05;;
13897;SDS011;7019;50.766;4.474;2022-07-05T07:15:48;5.00;;;2.13;;
13897;SDS011;7019;50.766;4.474;2022-07-05T07:18:15;3.17;;;1.80;;
13897;SDS011;7019;50.766;4.474;2022-07-05T07:20:43;7.72;;;2.08;;
13897;SDS011;7019;50.766;4.474;2022-07-05T07:23:10;4.47;;;2.08;;
13897;SDS011;7019;50.766;4.474;2022-07-05T07:25:37;6.07;;;2.20;;
13897;SDS011;7019;50.766;4.474;2022-07-05T07:28:04;5.28;;;2.72;;
13897;SDS011;7019;50.766;4.474;2022-07-05T07:30:32;5.40;;;2.05;;
13897;SDS011;7019;50.766;4.474;2022-07-05T07:32:59;6.63;;;2.42;;
13897;SDS011;7019;50.766;4.474;2022-07-05T07:35:26;4.15;;;2.22;;
13897;SDS011;7019;50.766;4.474;2022-07-05T07:37:54;6.50;;;2.70;;
13897;SDS011;7019;50.766;4.474;2022-07-05T07:40:21;6.38;;;3.30;;
13897;SDS011;7019;50.766;4.474;2022-07-05T07:42:48;5.40;;;2.75;;
13897;SDS011;7019;50.766;4.474;2022-07-05T07:45:15;6.10;;;2.50;;
13897;SDS011;7019;50.766;4.474;2022-07-05T07:47:42;4.55;;;2.15;;
13897;SDS011;7019;50.766;4.474;2022-07-05T07:50:09;4.63;;;2.70;;
13897;SDS011;7019;50.766;4.474;2022-07-05T07:52:36;6.60;;;2.60;;
13897;SDS011;7019;50.766;4.474;2022-07-05T07:55:05;3.42;;;2.55;;
13897;SDS011;7019;50.766;4.474;2022-07-05T07:57:33;4.32;;;2.20;;
13897;SDS011;7019;50.766;4.474;2022-07-05T08:00:00;8.25;;;2.40;;
13897;SDS011;7019;50.766;4.474;2022-07-05T08:02:27;6.38;;;3.45;;
13897;SDS011;7019;50.766;4.474;2022-07-05T08:04:54;4.43;;;2.40;;
13897;SDS011;7019;50.766;4.474;2022-07-05T08:07:23;4.88;;;2.28;;
13897;SDS011;7019;50.766;4.474;2022-07-05T08:09:50;8.00;;;2.72;;
13897;SDS011;7019;50.766;4.474;2022-07-05T08:12:19;4.18;;;2.28;;
13897;SDS011;7019;50.766;4.474;2022-07-05T08:14:46;4.47;;;1.90;;
13897;SDS011;7019;50.766;4.474;2022-07-05T08:17:13;6.10;;;2.40;;
13897;SDS011;7019;50.766;4.474;2022-07-05T08:19:40;4.43;;;2.00;;
13897;SDS011;7019;50.766;4.474;2022-07-05T08:22:25;5.25;;;2.20;;
13897;SDS011;7019;50.766;4.474;2022-07-05T08:24:52;3.17;;;1.80;;
13897;SDS011;7019;50.766;4.474;2022-07-05T08:27:20;4.13;;;2.63;;
13897;SDS011;7019;50.766;4.474;2022-07-05T08:29:47;5.97;;;2.40;;
13897;SDS011;7019;50.766;4.474;2022-07-05T08:32:15;6.88;;;2.80;;
13897;SDS011;7019;50.766;4.474;2022-07-05T08:34:42;5.50;;;3.22;;
13897;SDS011;7019;50.766;4.474;2022-07-05T08:37:09;5.68;;;2.75;;
13897;SDS011;7019;50.766;4.474;2022-07-05T08:39:37;12.00;;;2.42;;
13897;SDS011;7019;50.766;4.474;2022-07-05T08:42:04;7.57;;;2.30;;
13897;SDS011;7019;50.766;4.474;2022-07-05T08:44:37;5.78;;;2.58;;
13897;SDS011;7019;50.766;4.474;2022-07-05T08:47:08;4.90;;;2.00;;
13897;SDS011;7019;50.766;4.474;2022-07-05T08:49:36;3.72;;;2.15;;
13897;SDS011;7019;50.766;4.474;2022-07-05T08:52:05;3.72;;;2.10;;
13897;SDS011;7019;50.766;4.474;2022-07-05T08:54:36;6.22;;;2.63;;
13897;SDS011;7019;50.766;4.474;2022-07-05T08:57:03;3.95;;;2.03;;
13897;SDS011;7019;50.766;4.474;2022-07-05T08:59:30;3.10;;;1.60;;
13897;SDS011;7019;50.766;4.474;2022-07-05T09:01:59;6.15;;;2.25;;
13897;SDS011;7019;50.766;4.474;2022-07-05T09:04:27;3.75;;;1.40;;
13897;SDS011;7019;50.766;4.474;2022-07-05T09:06:57;3.70;;;1.85;;
13897;SDS011;7019;50.766;4.474;2022-07-05T09:09:32;4.65;;;1.85;;
13897;SDS011;7019;50.766;4.474;2022-07-05T09:12:00;2.72;;;1.48;;
13897;SDS011;7019;50.766;4.474;2022-07-05T09:14:27;5.45;;;1.65;;
13897;SDS011;7019;50.766;4.474;2022-07-05T09:16:55;6.75;;;2.47;;
13897;SDS011;7019;50.766;4.474;2022-07-05T09:19:24;6.05;;;1.67;;
13897;SDS011;7019;50.766;4.474;2022-07-05T09:22:00;7.43;;;1.98;;
13897;SDS011;7019;50.766;4.474;2022-07-05T09:24:28;4.85;;;1.63;;
13897;SDS011;7019;50.766;4.474;2022-07-05T09:27:01;4.38;;;1.40;;
13897;SDS011;7019;50.766;4.474;2022-07-05T09:29:30;3.03;;;1.30;;
13897;SDS011;7019;50.766;4.474;2022-07-05T09:31:57;6.15;;;1.75;;
13897;SDS011;7019;50.766;4.474;2022-07-05T09:34:25;5.55;;;1.50;;
13897;SDS011;7019;50.766;4.474;2022-07-05T09:36:56;6.47;;;1.90;;
13897;SDS011;7019;50.766;4.474;2022-07-05T09:39:37;6.72;;;1.73;;
13897;SDS011;7019;50.766;4.474;2022-07-05T09:42:09;3.28;;;1.50;;
13897;SDS011;7019;50.766;4.474;2022-07-05T09:44:43;3.20;;;1.20;;
13897;SDS011;7019;50.766;4.474;2022-07-05T09:47:11;1.80;;;1.20;;
13897;SDS011;7019;50.766;4.474;2022-07-05T09:49:43;2.75;;;1.40;;
13897;SDS011;7019;50.766;4.474;2022-07-05T09:52:25;3.88;;;1.42;;
13897;SDS011;7019;50.766;4.474;2022-07-05T09:57:41;6.05;;;2.17;;
13897;SDS011;7019;50.766;4.474;2022-07-05T10:00:10;5.30;;;2.20;;
13897;SDS011;7019;50.766;4.474;2022-07-05T10:02:39;4.95;;;2.25;;
13897;SDS011;7019;50.766;4.474;2022-07-05T10:05:09;5.10;;;2.03;;
13897;SDS011;7019;50.766;4.474;2022-07-05T10:07:38;4.47;;;1.83;;
13897;SDS011;7019;50.766;4.474;2022-07-05T10:10:07;3.15;;;2.03;;
13897;SDS011;7019;50.766;4.474;2022-07-05T10:12:36;5.75;;;2.40;;
13897;SDS011;7019;50.766;4.474;2022-07-05T10:15:04;4.85;;;2.08;;
13897;SDS011;7019;50.766;4.474;2022-07-05T10:17:35;3.15;;;1.90;;
13897;SDS011;7019;50.766;4.474;2022-07-05T10:20:08;5.15;;;1.95;;
13897;SDS011;7019;50.766;4.474;2022-07-05T10:22:41;4.03;;;2.17;;
13897;SDS011;7019;50.766;4.474;2022-07-05T10:25:09;5.28;;;2.22;;
13897;SDS011;7019;50.766;4.474;2022-07-05T10:27:37;4.22;;;2.17;;
13897;SDS011;7019;50.766;4.474;2022-07-05T10:30:04;4.78;;;3.00;;
13897;SDS011;7019;50.766;4.474;2022-07-05T10:32:33;5.30;;;2.47;;
13897;SDS011;7019;50.766;4.474;2022-07-05T10:35:01;7.15;;;3.03;;
13897;SDS011;7019;50.766;4.474;2022-07-05T10:37:31;6.90;;;2.80;;
13897;SDS011;7019;50.766;4.474;2022-07-05T10:40:00;7.63;;;3.08;;
13897;SDS011;7019;50.766;4.474;2022-07-05T10:42:30;5.38;;;4.22;;
13897;SDS011;7019;50.766;4.474;2022-07-05T10:45:01;5.05;;;3.20;;
13897;SDS011;7019;50.766;4.474;2022-07-05T10:47:28;3.72;;;3.15;;
13897;SDS011;7019;50.766;4.474;2022-07-05T10:50:01;4.95;;;3.03;;
13897;SDS011;7019;50.766;4.474;2022-07-05T10:52:31;4.60;;;3.35;;
13897;SDS011;7019;50.766;4.474;2022-07-05T10:55:17;6.60;;;3.47;;
13897;SDS011;7019;50.766;4.474;2022-07-05T11:00:48;6.75;;;3.80;;
13897;SDS011;7019;50.766;4.474;2022-07-05T11:03:54;6.95;;;3.03;;
13897;SDS011;7019;50.766;4.474;2022-07-05T11:06:39;4.20;;;2.35;;
13897;SDS011;7019;50.766;4.474;2022-07-05T11:09:18;5.90;;;2.80;;
13897;SDS011;7019;50.766;4.474;2022-07-05T11:11:46;6.30;;;2.50;;
13897;SDS011;7019;50.766;4.474;2022-07-05T11:14:31;4.13;;;1.90;;
13897;SDS011;7019;50.766;4.474;2022-07-05T11:20:04;4.68;;;2.78;;
13897;SDS011;7019;50.766;4.474;2022-07-05T11:22:34;2.38;;;1.52;;
13897;SDS011;7019;50.766;4.474;2022-07-05T11:25:03;3.17;;;2.05;;
13897;SDS011;7019;50.766;4.474;2022-07-05T11:27:32;4.90;;;1.73;;
13897;SDS011;7019;50.766;4.474;2022-07-05T11:30:00;5.28;;;1.60;;
13897;SDS011;7019;50.766;4.474;2022-07-05T11:32:36;4.93;;;1.60;;
13897;SDS011;7019;50.766;4.474;2022-07-05T11:35:11;3.65;;;1.35;;
13897;SDS011;7019;50.766;4.474;2022-07-05T11:40:31;3.03;;;1.38;;
13897;SDS011;7019;50.766;4.474;2022-07-05T11:42:58;3.78;;;1.58;;
13897;SDS011;7019;50.766;4.474;2022-07-05T11:45:28;3.63;;;1.48;;
13897;SDS011;7019;50.766;4.474;2022-07-05T11:47:56;2.78;;;1.23;;
13897;SDS011;7019;50.766;4.474;2022-07-05T11:50:25;2.88;;;1.40;;
13897;SDS011;7019;50.766;4.474;2022-07-05T11:52:57;3.85;;;1.20;;
13897;SDS011;7019;50.766;4.474;2022-07-05T11:55:25;3.38;;;1.20;;
13897;SDS011;7019;50.766;4.474;2022-07-05T11:57:55;2.63;;;1.20;;
13897;SDS011;7019;50.766;4.474;2022-07-05T12:00:26;3.10;;;1.48;;
13897;SDS011;7019;50.766;4.474;2022-07-05T12:02:55;3.78;;;1.70;;
13897;SDS011;7019;50.766;4.474;2022-07-05T12:05:22;5.78;;;1.23;;
13897;SDS011;7019;50.766;4.474;2022-07-05T12:07:50;5.80;;;1.42;;
13897;SDS011;7019;50.766;4.474;2022-07-05T12:10:17;3.20;;;1.38;;
13897;SDS011;7019;50.766;4.474;2022-07-05T12:13:05;4.22;;;1.42;;
13897;SDS011;7019;50.766;4.474;2022-07-05T12:15:32;3.80;;;1.17;;
13897;SDS011;7019;50.766;4.474;2022-07-05T12:17:59;3.13;;;1.38;;
13897;SDS011;7019;50.766;4.474;2022-07-05T12:20:30;3.42;;;1.50;;
13897;SDS011;7019;50.766;4.474;2022-07-05T12:22:58;2.50;;;1.10;;
13897;SDS011;7019;50.766;4.474;2022-07-05T12:25:27;4.20;;;1.50;;
13897;SDS011;7019;50.766;4.474;2022-07-05T12:27:56;2.67;;;1.10;;
13897;SDS011;7019;50.766;4.474;2022-07-05T12:30:25;2.70;;;1.08;;
13897;SDS011;7019;50.766;4.474;2022-07-05T12:32:55;4.22;;;1.52;;
13897;SDS011;7019;50.766;4.474;2022-07-05T12:38:09;3.67;;;1.67;;
13897;SDS011;7019;50.766;4.474;2022-07-05T12:40:40;3.33;;;1.15;;
13897;SDS011;7019;50.766;4.474;2022-07-05T12:43:09;4.47;;;1.20;;
13897;SDS011;7019;50.766;4.474;2022-07-05T12:45:39;2.60;;;1.40;;
13897;SDS011;7019;50.766;4.474;2022-07-05T12:48:08;2.92;;;1.48;;
13897;SDS011;7019;50.766;4.474;2022-07-05T12:50:47;5.78;;;1.92;;
13897;SDS011;7019;50.766;4.474;2022-07-05T12:53:15;5.35;;;1.60;;
13897;SDS011;7019;50.766;4.474;2022-07-05T12:56:02;4.38;;;1.67;;
13897;SDS011;7019;50.766;4.474;2022-07-05T12:58:48;7.25;;;1.52;;
13897;SDS011;7019;50.766;4.474;2022-07-05T13:01:24;2.63;;;1.20;;
13897;SDS011;7019;50.766;4.474;2022-07-05T13:06:47;4.20;;;2.03;;
13897;SDS011;7019;50.766;4.474;2022-07-05T13:09:21;2.88;;;1.60;;
13897;SDS011;7019;50.766;4.474;2022-07-05T13:12:10;3.17;;;1.50;;
13897;SDS011;7019;50.766;4.474;2022-07-05T13:14:39;4.07;;;1.43;;
13897;SDS011;7019;50.766;4.474;2022-07-05T13:17:09;7.70;;;2.17;;
13897;SDS011;7019;50.766;4.474;2022-07-05T13:19:38;2.63;;;1.67;;
13897;SDS011;7019;50.766;4.474;2022-07-05T13:22:06;5.07;;;1.80;;
13897;SDS011;7019;50.766;4.474;2022-07-05T13:24:33;5.60;;;2.13;;
13897;SDS011;7019;50.766;4.474;2022-07-05T13:27:01;3.20;;;1.97;;
13897;SDS011;7019;50.766;4.474;2022-07-05T13:29:29;4.87;;;2.30;;
13897;SDS011;7019;50.766;4.474;2022-07-05T13:31:56;3.77;;;1.87;;
13897;SDS011;7019;50.766;4.474;2022-07-05T13:34:25;3.87;;;1.80;;
13897;SDS011;7019;50.766;4.474;2022-07-05T13:36:53;4.23;;;1.90;;
13897;SDS011;7019;50.766;4.474;2022-07-05T13:39:21;4.40;;;1.93;;
13897;SDS011;7019;50.766;4.474;2022-07-05T13:41:50;3.97;;;2.30;;
13897;SDS011;7019;50.766;4.474;2022-07-05T13:44:18;7.17;;;2.20;;
13897;SDS011;7019;50.766;4.474;2022-07-05T13:46:46;3.37;;;1.93;;
13897;SDS011;7019;50.766;4.474;2022-07-05T13:49:13;3.37;;;1.50;;
13897;SDS011;7019;50.766;4.474;2022-07-05T13:51:42;3.30;;;2.03;;
13897;SDS011;7019;50.766;4.474;2022-07-05T13:54:09;5.87;;;1.93;;
13897;SDS011;7019;50.766;4.474;2022-07-05T13:56:36;2.53;;;1.70;;
13897;SDS011;7019;50.766;4.474;2022-07-05T13:59:03;4.33;;;1.60;;
13897;SDS011;7019;50.766;4.474;2022-07-05T14:01:30;5.33;;;1.67;;
13897;SDS011;7019;50.766;4.474;2022-07-05T14:03:58;4.23;;;1.60;;
13897;SDS011;7019;50.766;4.474;2022-07-05T14:06:27;6.20;;;1.70;;
13897;SDS011;7019;50.766;4.474;2022-07-05T14:08:57;5.97;;;1.80;;
13897;SDS011;7019;50.766;4.474;2022-07-05T14:11:25;2.53;;;1.40;;
13897;SDS011;7019;50.766;4.474;2022-07-05T14:13:52;2.43;;;1.20;;
13897;SDS011;7019;50.766;4.474;2022-07-05T14:16:19;2.97;;;1.43;;
13897;SDS011;7019;50.766;4.474;2022-07-05T14:18:46;2.73;;;1.30;;
13897;SDS011;7019;50.766;4.474;2022-07-05T14:21:14;6.33;;;1.70;;
13897;SDS011;7019;50.766;4.474;2022-07-05T14:23:42;6.37;;;1.63;;
13897;SDS011;7019;50.766;4.474;2022-07-05T14:26:11;3.37;;;1.50;;
13897;SDS011;7019;50.766;4.474;2022-07-05T14:28:38;5.50;;;1.40;;
13897;SDS011;7019;50.766;4.474;2022-07-05T14:31:05;5.70;;;1.47;;
13897;SDS011;7019;50.766;4.474;2022-07-05T14:33:32;3.87;;;1.00;;
13897;SDS011;7019;50.766;4.474;2022-07-05T14:35:59;4.77;;;1.33;;
13897;SDS011;7019;50.766;4.474;2022-07-05T14:38:28;9.47;;;1.33;;
13897;SDS011;7019;50.766;4.474;2022-07-05T14:40:55;4.77;;;1.60;;
13897;SDS011;7019;50.766;4.474;2022-07-05T14:43:24;3.13;;;1.27;;
13897;SDS011;7019;50.766;4.474;2022-07-05T14:45:51;4.40;;;1.30;;
13897;SDS011;7019;50.766;4.474;2022-07-05T14:48:18;3.03;;;0.83;;
13897;SDS011;7019;50.766;4.474;2022-07-05T14:50:46;5.30;;;1.37;;
13897;SDS011;7019;50.766;4.474;2022-07-05T14:53:14;4.57;;;1.13;;
13897;SDS011;7019;50.766;4.474;2022-07-05T14:55:43;5.50;;;1.20;;
13897;SDS011;7019;50.766;4.474;2022-07-05T14:58:10;6.03;;;2.57;;
13897;SDS011;7019;50.766;4.474;2022-07-05T15:00:39;2.37;;;1.27;;
13897;SDS011;7019;50.766;4.474;2022-07-05T15:03:06;2.93;;;1.17;;
13897;SDS011;7019;50.766;4.474;2022-07-05T15:05:35;3.33;;;1.10;;
13897;SDS011;7019;50.766;4.474;2022-07-05T15:08:02;3.13;;;1.30;;
13897;SDS011;7019;50.766;4.474;2022-07-05T15:10:30;6.57;;;1.20;;
13897;SDS011;7019;50.766;4.474;2022-07-05T15:12:57;3.73;;;1.30;;
13897;SDS011;7019;50.766;4.474;2022-07-05T15:15:24;5.97;;;1.10;;
13897;SDS011;7019;50.766;4.474;2022-07-05T15:17:52;3.13;;;0.97;;
13897;SDS011;7019;50.766;4.474;2022-07-05T15:20:21;4.57;;;1.20;;
13897;SDS011;7019;50.766;4.474;2022-07-05T15:22:49;2.23;;;1.20;;
13897;SDS011;7019;50.766;4.474;2022-07-05T15:25:16;1.50;;;0.93;;
13897;SDS011;7019;50.766;4.474;2022-07-05T15:27:43;2.77;;;1.07;;